Time;durP1;ratioP1;P1;durP2;ratioP2;P2;SDS_P1;SDS_P2;PMS_P1;PMS_P2;Temp;Humidity;BMP_temperature;BMP_pressure;BME280_temperature;BME280_humidity;BME280_pressure;Samples;Min_cycle;Max_cycle;Signal;HPM_P1;HPM_P2
2022/05/01 00:01:04;;;;;;;14.00;6.55;;;;;;;8.90;77.35;102386.00;5089412;28;20039;-68
2022/05/01 00:03:34;;;;;;;11.93;6.50;;;;;;;8.93;77.28;102390.19;5089525;28;20023;-68
2022/05/01 00:06:09;;;;;;;13.52;6.72;;;;;;;8.95;77.39;102396.22;5089454;28;20103;-69
2022/05/01 00:08:40;;;;;;;14.07;6.70;;;;;;;8.95;77.45;102382.91;5088507;28;20118;-69
2022/05/01 00:11:08;;;;;;;12.13;5.63;;;;;;;8.95;77.25;102381.09;5086283;28;20058;-68
2022/05/01 00:13:34;;;;;;;14.65;7.03;;;;;;;8.94;77.32;102390.06;5089201;28;20024;-68
2022/05/01 00:15:59;;;;;;;13.63;7.60;;;;;;;8.96;77.38;102382.78;5089328;28;20070;-68
2022/05/01 00:18:25;;;;;;;22.65;9.68;;;;;;;8.94;77.54;102381.25;5089343;28;20072;-68
2022/05/01 00:20:50;;;;;;;14.82;7.25;;;;;;;8.95;77.48;102385.56;5089165;28;20032;-68
2022/05/01 00:23:16;;;;;;;14.55;7.72;;;;;;;8.95;77.49;102375.75;5089341;28;20035;-68
2022/05/01 00:25:42;;;;;;;11.70;6.65;;;;;;;8.93;77.50;102377.75;5089148;28;20032;-68
2022/05/01 00:28:12;;;;;;;12.75;5.97;;;;;;;8.92;77.80;102375.22;5088963;28;20126;-68
2022/05/01 00:30:38;;;;;;;13.57;7.22;;;;;;;8.89;77.52;102375.53;5089146;28;20028;-68
2022/05/01 00:38:33;;;;;;;12.57;6.97;;;;;;;8.86;78.40;102375.84;5088896;28;20038;-68
2022/05/01 00:40:59;;;;;;;16.02;8.25;;;;;;;8.85;78.41;102382.13;5071126;28;20043;-68
2022/05/01 00:43:25;;;;;;;16.67;7.97;;;;;;;8.82;78.59;102377.94;5069500;28;20024;-68
2022/05/01 00:45:50;;;;;;;16.67;7.75;;;;;;;8.84;78.72;102378.63;5069610;28;20056;-68
2022/05/01 00:48:16;;;;;;;14.20;7.78;;;;;;;8.84;78.60;102375.97;5069533;28;20495;-68
2022/05/01 00:50:43;;;;;;;15.75;8.98;;;;;;;8.84;78.33;102370.66;5086390;28;20024;-69
2022/05/01 00:53:09;;;;;;;18.08;7.80;;;;;;;8.83;78.67;102365.47;5088919;28;20024;-68
2022/05/01 00:55:36;;;;;;;17.15;9.02;;;;;;;8.83;78.70;102366.31;5088715;28;20076;-68
2022/05/01 00:58:05;;;;;;;17.98;7.93;;;;;;;8.81;78.75;102370.13;5088827;28;20146;-68
2022/05/01 01:00:30;;;;;;;14.68;8.10;;;;;;;8.77;78.75;102361.56;5088848;28;20393;-68
2022/05/01 01:02:56;;;;;;;17.63;8.73;;;;;;;8.71;78.95;102363.00;5088640;28;20115;-68
2022/05/01 01:05:21;;;;;;;16.50;9.52;;;;;;;8.63;78.71;102352.25;5089477;28;20428;-68
2022/05/01 01:07:47;;;;;;;20.02;8.57;;;;;;;8.65;79.42;102358.28;5069536;28;20449;-68
2022/05/01 01:10:13;;;;;;;18.42;9.70;;;;;;;8.66;79.47;102359.94;5069372;28;20108;-69
2022/05/01 01:12:54;;;;;;;16.80;8.73;;;;;;;8.61;79.45;102356.88;5088727;28;20024;-69
2022/05/01 01:15:21;;;;;;;19.92;8.48;;;;;;;8.64;79.53;102361.91;5078633;28;20663;-69
2022/05/01 01:17:52;;;;;;;16.30;7.75;;;;;;;8.62;79.36;102357.72;5069972;28;20032;-68
2022/05/01 01:20:21;;;;;;;16.00;7.15;;;;;;;8.65;79.11;102360.94;5088523;28;20027;-69
2022/05/01 01:22:48;;;;;;;16.83;7.65;;;;;;;8.65;79.05;102355.63;5088612;28;20034;-68
2022/05/01 01:25:17;;;;;;;17.85;8.43;;;;;;;8.61;79.23;102348.06;5088645;28;20077;-69
2022/05/01 01:27:43;;;;;;;15.10;7.75;;;;;;;8.63;79.04;102352.25;5088301;28;20123;-69
2022/05/01 01:32:53;;;;;;;14.05;7.95;;;;;;;8.66;79.52;102359.94;5074851;28;20043;-68
2022/05/01 01:35:22;;;;;;;16.77;8.38;;;;;;;8.62;80.35;102358.56;5069993;28;20021;-68
2022/05/01 01:37:49;;;;;;;16.40;8.10;;;;;;;8.63;80.43;102359.41;5088150;28;20036;-68
2022/05/01 01:40:20;;;;;;;17.10;8.18;;;;;;;8.62;80.51;102357.72;5088385;28;20024;-68
2022/05/01 01:42:46;;;;;;;;;;;;;;;8.62;78.71;102353.25;5088615;28;20101;-68
2022/05/01 01:45:13;;;;;;;15.73;7.55;;;;;;;8.61;79.79;102359.53;5086395;28;19953;-69
2022/05/01 01:47:38;;;;;;;16.88;9.13;;;;;;;8.61;80.49;102356.06;5088205;28;20093;-68
2022/05/01 01:50:05;;;;;;;14.57;7.95;;;;;;;8.58;80.24;102346.53;5088557;28;20134;-69
2022/05/01 01:52:33;;;;;;;20.63;9.27;;;;;;;8.62;80.08;102353.25;5078292;28;20028;-68
2022/05/01 01:54:59;;;;;;;16.58;8.05;;;;;;;8.62;79.55;102350.59;5091919;28;20052;-68
2022/05/01 01:57:25;;;;;;;20.27;8.68;;;;;;;8.62;79.47;102350.59;5091844;28;20028;-69
2022/05/01 01:59:50;;;;;;;16.05;8.35;;;;;;;8.59;80.12;102347.38;5090479;28;20119;-68
2022/05/01 02:02:15;;;;;;;16.85;8.48;;;;;;;8.57;80.26;102350.19;5091712;28;20040;-68
2022/05/01 02:04:41;;;;;;;14.75;7.70;;;;;;;8.55;80.76;102349.50;5091780;28;20040;-69
2022/05/01 02:07:06;;;;;;;21.00;10.00;;;;;;;8.54;80.83;102348.66;5091752;28;20028;-69
2022/05/01 02:09:36;;;;;;;15.98;7.85;;;;;;;8.53;80.20;102348.81;5091509;28;20619;-69
2022/05/01 02:12:01;;;;;;;18.45;8.07;;;;;;;8.40;80.41;102329.69;5091484;28;20028;-69
2022/05/01 02:14:27;;;;;;;16.30;8.73;;;;;;;8.53;80.46;102351.47;5091247;28;20075;-69
2022/05/01 02:16:55;;;;;;;17.90;8.60;;;;;;;8.53;80.52;102351.47;5090737;28;20047;-68
2022/05/01 02:19:20;;;;;;;17.83;9.27;;;;;;;8.53;80.48;102344.31;5091119;28;20039;-68
2022/05/01 02:21:47;;;;;;;20.25;9.63;;;;;;;8.54;81.03;102346.00;5090949;28;20398;-68
2022/05/01 02:24:12;;;;;;;17.63;9.00;;;;;;;8.53;81.14;102346.97;5090777;28;20043;-69
2022/05/01 02:26:38;;;;;;;20.67;9.45;;;;;;;8.52;81.70;102341.81;5090898;28;20036;-69
2022/05/01 02:29:10;;;;;;;18.05;9.13;;;;;;;8.49;81.96;102340.28;5091001;28;20039;-68
2022/05/01 02:31:40;;;;;;;18.33;9.15;;;;;;;8.47;81.47;102338.75;5091210;28;20032;-69
2022/05/01 02:34:06;;;;;;;22.40;10.30;;;;;;;8.44;81.49;102342.56;5090901;28;20024;-68
2022/05/01 02:36:31;;;;;;;19.23;9.73;;;;;;;8.41;81.58;102332.22;5088415;28;20039;-68
2022/05/01 02:38:57;;;;;;;17.80;8.50;;;;;;;8.43;81.77;102330.22;5071873;28;20035;-68
2022/05/01 02:41:22;;;;;;;19.60;8.75;;;;;;;8.43;81.71;102332.88;5071597;28;20039;-69
2022/05/01 02:43:48;;;;;;;24.33;10.43;;;;;;;8.44;82.05;102328.44;5071732;28;20029;-68
2022/05/01 02:46:15;;;;;;;18.52;9.57;;;;;;;8.44;82.74;102336.41;5071752;28;20056;-69
2022/05/01 02:48:41;;;;;;;16.65;9.65;;;;;;;8.42;83.12;102327.72;5090589;28;20565;-69
2022/05/01 02:51:06;;;;;;;20.90;9.07;;;;;;;8.40;83.17;102327.03;5091015;28;20143;-69
2022/05/01 02:53:33;;;;;;;20.25;9.13;;;;;;;8.35;82.75;102327.44;5090715;28;20055;-68
2022/05/01 02:56:00;;;;;;;16.70;8.68;;;;;;;8.35;82.47;102328.25;5085096;28;20055;-68
2022/05/01 02:58:27;;;;;;;18.40;10.35;;;;;;;8.35;82.42;102322.94;5088342;28;20093;-68
2022/05/01 03:00:53;;;;;;;15.52;9.38;;;;;;;8.35;82.46;102324.75;5090722;28;20024;-68
2022/05/01 03:03:18;;;;;;;17.10;8.75;;;;;;;8.30;82.67;102319.03;5090536;28;20042;-68
2022/05/01 03:05:43;;;;;;;19.55;9.60;;;;;;;8.35;82.64;102314.97;5089369;28;20038;-68
2022/05/01 03:08:12;;;;;;;19.83;11.40;;;;;;;8.35;82.88;102324.75;5090500;28;20035;-68
2022/05/01 03:10:37;;;;;;;18.50;9.70;;;;;;;8.33;83.05;102326.72;5091872;28;20121;-69
2022/05/01 03:13:02;;;;;;;18.88;9.43;;;;;;;8.27;83.50;102312.19;5092425;28;20028;-68
2022/05/01 03:15:28;;;;;;;22.80;10.73;;;;;;;8.28;83.67;102315.72;5089093;28;20024;-69
2022/05/01 03:23:21;;;;;;;21.35;9.73;;;;;;;8.23;82.71;102313.50;5090264;28;20078;-68
2022/05/01 03:25:47;;;;;;;19.80;10.43;;;;;;;8.23;82.89;102318.81;5090099;28;20024;-69
2022/05/01 03:28:12;;;;;;;20.30;11.07;;;;;;;8.23;82.89;102315.31;5090395;28;20055;-68
2022/05/01 03:30:37;;;;;;;17.25;9.73;;;;;;;8.22;82.87;102306.47;5089028;28;20028;-68
2022/05/01 03:33:05;;;;;;;19.63;10.40;;;;;;;8.24;82.80;102306.34;5089698;28;20019;-68
2022/05/01 03:35:31;;;;;;;20.02;10.68;;;;;;;8.24;82.94;102306.34;5089451;28;20036;-68
2022/05/01 03:37:56;;;;;;;21.30;9.18;;;;;;;8.23;82.91;102304.69;5090054;28;20039;-68
2022/05/01 03:40:22;;;;;;;19.13;9.68;;;;;;;8.17;83.01;102294.63;5089773;28;20109;-68
2022/05/01 03:42:47;;;;;;;18.65;9.38;;;;;;;8.20;83.30;102308.47;5089798;28;20548;-68
2022/05/01 03:45:13;;;;;;;19.48;9.93;;;;;;;8.11;83.09;102294.22;5089666;28;20032;-69
2022/05/01 03:47:38;;;;;;;17.02;9.02;;;;;;;8.15;83.21;102301.88;5089635;28;20031;-68
2022/05/01 03:50:05;;;;;;;18.55;9.48;;;;;;;8.14;83.52;102301.06;5089588;28;20391;-68
2022/05/01 03:52:30;;;;;;;20.17;10.07;;;;;;;8.11;83.60;102298.69;5089586;28;20028;-68
2022/05/01 03:54:56;;;;;;;23.83;11.38;;;;;;;8.16;83.22;102304.41;5088155;28;20059;-69
2022/05/01 03:57:21;;;;;;;20.95;10.57;;;;;;;8.17;83.31;102299.94;5089509;28;20044;-69
2022/05/01 03:59:46;;;;;;;20.88;10.38;;;;;;;8.16;83.29;102301.75;5089569;28;20024;-68
2022/05/01 04:02:14;;;;;;;19.60;9.63;;;;;;;8.13;83.34;102302.88;5089436;28;20047;-69
2022/05/01 04:04:39;;;;;;;21.20;10.45;;;;;;;8.12;83.89;102313.63;5089430;28;20497;-68
2022/05/01 04:07:05;;;;;;;21.52;10.45;;;;;;;8.04;83.71;102301.09;5089371;28;20032;-68
2022/05/01 04:09:30;;;;;;;21.63;10.15;;;;;;;8.06;84.10;102299.13;5089462;28;20410;-68
2022/05/01 04:11:55;;;;;;;21.73;10.63;;;;;;;7.94;83.72;102286.16;5069817;28;20036;-69
2022/05/01 04:14:21;;;;;;;19.45;9.90;;;;;;;8.05;83.63;102305.44;5069186;28;20032;-68
2022/05/01 04:16:46;;;;;;;20.38;10.57;;;;;;;8.01;83.53;102298.72;5069397;28;20027;-69
2022/05/01 04:19:11;;;;;;;19.92;9.98;;;;;;;8.06;83.56;102308.91;5082420;28;20123;-68
2022/05/01 04:21:38;;;;;;;20.73;10.77;;;;;;;8.06;84.25;102309.75;5087665;28;20103;-68
2022/05/01 04:24:04;;;;;;;24.38;10.52;;;;;;;8.05;84.29;102309.91;5088917;28;20063;-68
2022/05/01 04:26:30;;;;;;;20.10;10.63;;;;;;;8.04;84.54;102309.06;5088947;28;20526;-68
2022/05/01 04:31:39;;;;;;;19.77;10.48;;;;;;;7.98;84.63;102306.97;5089129;28;20098;-68
2022/05/01 04:34:04;;;;;;;22.30;10.85;;;;;;;7.93;84.82;102303.91;5088897;28;20379;-68
2022/05/01 04:36:30;;;;;;;20.85;11.65;;;;;;;7.95;84.67;102306.44;5087103;28;20043;-68
2022/05/01 04:38:55;;;;;;;21.25;10.48;;;;;;;7.95;84.99;102303.78;5088574;28;20081;-68
2022/05/01 04:41:21;;;;;;;23.13;10.93;;;;;;;7.96;84.92;102300.13;5088886;28;20119;-68
2022/05/01 04:43:47;;;;;;;23.42;10.82;;;;;;;7.96;84.99;102300.13;5087328;28;20031;-68
2022/05/01 04:46:12;;;;;;;22.73;11.48;;;;;;;7.98;84.84;102306.16;5088865;28;20067;-68
2022/05/01 04:48:38;;;;;;;21.83;9.65;;;;;;;7.95;84.98;102304.63;5088725;28;20024;-68
2022/05/01 04:51:05;;;;;;;22.75;13.02;;;;;;;7.99;85.02;102307.81;5088906;28;20036;-68
2022/05/01 04:53:30;;;;;;;22.85;11.73;;;;;;;7.95;84.86;102304.63;5088791;28;20914;-69
2022/05/01 04:57:04;;;;;;;21.52;11.20;;;;;;;7.99;85.17;102315.78;5088457;28;20047;-69
2022/05/01 04:58:41;;;;;;;22.15;11.93;;;;;;;8.03;85.06;102314.53;5088558;28;20496;-68
2022/05/01 05:01:06;;;;;;;19.52;10.85;;;;;;;8.05;84.86;102312.56;5077071;28;20725;-69
2022/05/01 05:03:32;;;;;;;21.42;12.15;;;;;;;8.08;84.82;102317.59;5069268;28;20515;-68
2022/05/01 05:05:57;;;;;;;22.05;12.23;;;;;;;8.05;84.96;102308.09;5069516;28;20024;-68
2022/05/01 05:11:06;;;;;;;22.73;12.52;;;;;;;8.17;84.49;102315.88;5069278;28;20047;-68
2022/05/01 05:13:33;;;;;;;22.27;11.50;;;;;;;8.20;84.45;102324.41;5069165;28;20024;-68
2022/05/01 05:15:59;;;;;;;21.48;11.70;;;;;;;8.20;84.26;102329.72;5067968;28;20376;-68
2022/05/01 05:18:25;;;;;;;29.00;11.18;;;;;;;8.18;84.56;102323.72;5088522;28;20032;-68
2022/05/01 05:20:50;;;;;;;23.80;12.27;;;;;;;8.19;84.90;102320.06;5088514;28;20119;-68
2022/05/01 05:23:17;;;;;;;22.58;12.13;;;;;;;8.21;85.02;102327.91;5088292;28;20036;-68
2022/05/01 05:25:43;;;;;;;23.67;11.73;;;;;;;8.24;84.58;102327.63;5088341;28;20028;-68
2022/05/01 05:28:08;;;;;;;21.92;12.05;;;;;;;8.26;84.79;102320.34;5091421;28;20153;-68
2022/05/01 05:30:35;;;;;;;23.45;11.30;;;;;;;8.31;84.52;102320.75;5092380;28;20407;-68
2022/05/01 05:33:01;;;;;;;22.98;11.88;;;;;;;8.37;84.78;102324.63;5082572;28;20436;-69
2022/05/01 05:35:26;;;;;;;21.35;10.70;;;;;;;8.43;84.25;102329.38;5072882;28;20071;-68
2022/05/01 05:37:51;;;;;;;23.20;12.30;;;;;;;8.49;84.00;102332.31;5072372;28;20039;-69
2022/05/01 05:40:17;;;;;;;25.23;12.88;;;;;;;8.53;83.65;102339.00;5072508;28;20024;-68
2022/05/01 05:42:44;;;;;;;24.60;12.70;;;;;;;8.55;83.55;102329.06;5079008;28;20032;-68
2022/05/01 05:45:12;;;;;;;20.77;11.50;;;;;;;8.71;83.02;102330.25;5091562;28;20042;-68
2022/05/01 05:47:37;;;;;;;23.42;13.35;;;;;;;8.69;82.31;102326.91;5092106;28;20112;-68
2022/05/01 05:50:03;;;;;;;26.08;14.43;;;;;;;8.77;82.63;102335.81;5092351;28;20470;-68
2022/05/01 05:52:28;;;;;;;23.63;14.18;;;;;;;8.94;82.55;102330.69;5091867;28;20426;-68
2022/05/01 05:54:54;;;;;;;23.27;13.38;;;;;;;9.13;81.58;102338.53;5091687;28;20044;-69
2022/05/01 05:57:19;;;;;;;24.23;14.30;;;;;;;9.29;80.93;102337.03;5090448;28;20058;-68
2022/05/01 05:59:44;;;;;;;23.98;13.50;;;;;;;9.43;80.20;102339.16;5091361;28;20391;-68
2022/05/01 06:02:10;;;;;;;21.17;12.20;;;;;;;9.51;79.46;102335.72;5091588;28;20490;-68
2022/05/01 06:04:37;;;;;;;22.73;14.27;;;;;;;9.59;79.36;102336.66;5091671;28;20546;-69
2022/05/01 06:07:03;;;;;;;24.25;13.55;;;;;;;9.71;78.83;102347.06;5091663;28;20031;-69
2022/05/01 06:09:28;;;;;;;24.20;12.40;;;;;;;9.80;78.79;102339.00;5090276;28;20032;-68
2022/05/01 06:11:53;;;;;;;23.10;12.13;;;;;;;9.91;78.21;102337.91;5091383;28;20066;-69
2022/05/01 06:14:19;;;;;;;23.70;14.30;;;;;;;9.96;77.55;102337.44;5091309;28;20028;-69
2022/05/01 06:16:44;;;;;;;22.17;12.60;;;;;;;10.09;77.28;102346.69;5090190;28;20064;-69
2022/05/01 06:19:09;;;;;;;23.23;12.45;;;;;;;10.30;76.74;102354.34;5091357;28;20111;-68
2022/05/01 06:21:35;;;;;;;22.85;13.52;;;;;;;10.44;75.73;102355.59;5091524;28;20483;-69
2022/05/01 06:24:00;;;;;;;24.77;13.13;;;;;;;10.53;75.13;102362.66;5081533;28;20032;-69
2022/05/01 06:26:25;;;;;;;23.52;13.05;;;;;;;10.62;74.53;102362.69;5091209;28;20052;-68
2022/05/01 06:28:51;;;;;;;22.90;13.70;;;;;;;10.72;73.93;102366.06;5080424;28;20024;-68
2022/05/01 06:31:17;;;;;;;25.63;13.57;;;;;;;10.80;73.84;102358.09;5071875;28;20417;-68
2022/05/01 06:33:45;;;;;;;21.55;11.93;;;;;;;10.99;73.00;102356.16;5071729;28;20033;-68
2022/05/01 06:36:12;;;;;;;20.90;12.27;;;;;;;11.18;72.85;102362.03;5090959;28;20054;-69
2022/05/01 06:38:38;;;;;;;22.85;14.18;;;;;;;11.38;72.86;102356.41;5089527;28;20065;-69
2022/05/01 06:41:04;;;;;;;22.20;13.57;;;;;;;11.47;71.99;102355.41;5089306;28;20036;-68
2022/05/01 06:43:30;;;;;;;21.15;13.27;;;;;;;11.53;71.89;102352.09;5090887;28;20028;-69
2022/05/01 06:45:56;;;;;;;22.52;13.23;;;;;;;11.67;71.35;102361.28;5091015;28;20035;-69
2022/05/01 06:48:22;;;;;;;22.45;12.82;;;;;;;11.68;71.19;102365.59;5089708;28;20028;-68
2022/05/01 06:50:47;;;;;;;24.63;12.13;;;;;;;11.79;70.82;102364.47;5090773;28;20036;-69
2022/05/01 06:53:13;;;;;;;22.30;11.10;;;;;;;11.92;69.23;102366.63;5090718;28;20027;-69
2022/05/01 06:55:38;;;;;;;20.02;11.73;;;;;;;11.97;69.52;102366.97;5090370;28;20119;-69
2022/05/01 06:58:04;;;;;;;23.45;11.52;;;;;;;12.02;68.20;102367.31;5090183;28;20016;-69
2022/05/01 07:00:29;;;;;;;23.13;12.80;;;;;;;11.95;69.16;102358.31;5073775;28;20040;-69
2022/05/01 07:02:55;;;;;;;20.60;11.95;;;;;;;12.08;69.67;102358.63;5071771;28;20383;-69
2022/05/01 07:05:21;;;;;;;24.08;12.88;;;;;;;12.03;67.59;102359.13;5072873;28;20028;-69
2022/05/01 07:07:50;;;;;;;21.05;12.90;;;;;;;11.96;67.91;102359.97;5071588;28;20031;-69
2022/05/01 07:10:16;;;;;;;26.17;11.43;;;;;;;12.10;68.18;102356.59;5071125;28;20028;-68
2022/05/01 07:12:41;;;;;;;19.45;10.80;;;;;;;12.17;65.63;102356.75;5071105;28;20066;-68
2022/05/01 07:15:07;;;;;;;21.27;12.00;;;;;;;12.23;66.32;102356.91;5071018;28;20068;-68
2022/05/01 07:17:33;;;;;;;21.27;11.05;;;;;;;12.27;66.72;102358.25;5070842;28;20020;-68
2022/05/01 07:19:59;;;;;;;17.75;10.48;;;;;;;12.25;65.84;102356.75;5083671;28;20077;-68
2022/05/01 07:22:24;;;;;;;20.00;10.85;;;;;;;12.19;64.71;102352.91;5090100;28;20111;-70
2022/05/01 07:24:50;;;;;;;21.52;10.82;;;;;;;12.22;65.15;102360.59;5082953;28;20570;-73
2022/05/01 07:27:15;;;;;;;19.95;11.13;;;;;;;12.34;65.07;102354.88;5072054;28;20059;-73
2022/05/01 07:29:41;;;;;;;18.80;10.27;;;;;;;12.53;65.00;102365.19;5076441;28;20062;-74
2022/05/01 07:32:06;;;;;;;22.48;11.27;;;;;;;12.62;63.35;102366.00;5089916;28;20073;-73
2022/05/01 07:34:32;;;;;;;19.55;11.18;;;;;;;12.70;63.22;102360.63;5077163;28;20031;-73
2022/05/01 07:36:57;;;;;;;20.00;10.73;;;;;;;12.64;63.33;102364.81;5072041;28;20036;-73
2022/05/01 07:39:23;;;;;;;19.73;11.48;;;;;;;12.60;64.55;102362.66;5089893;28;21142;-73
2022/05/01 07:41:48;;;;;;;19.65;10.77;;;;;;;12.72;63.24;102359.44;5085586;28;20035;-67
2022/05/01 07:44:14;;;;;;;20.42;11.60;;;;;;;12.81;65.18;102354.03;5071310;28;20490;-70
2022/05/01 07:46:40;;;;;;;20.88;12.07;;;;;;;12.95;62.75;102356.00;5077810;28;20031;-73
2022/05/01 07:49:07;;;;;;;21.38;10.68;;;;;;;13.05;63.16;102367.31;5073931;28;20064;-72
2022/05/01 07:51:32;;;;;;;22.10;12.43;;;;;;;13.13;62.49;102356.56;5086814;28;20024;-72
2022/05/01 07:53:58;;;;;;;19.98;11.32;;;;;;;13.12;62.54;102365.59;5089300;28;20062;-72
2022/05/01 07:56:27;;;;;;;21.30;9.85;;;;;;;13.45;62.88;102361.91;5084853;28;20051;-68
2022/05/01 07:58:52;;;;;;;25.88;12.55;;;;;;;13.93;60.80;102366.03;5089522;28;20042;-72
2022/05/01 08:01:19;;;;;;;18.83;10.45;;;;;;;14.19;59.30;102362.09;5075885;28;20464;-72
2022/05/01 08:06:28;;;;;;;19.52;9.68;;;;;;;13.78;59.85;102359.78;5070308;28;20182;-73
2022/05/01 08:08:53;;;;;;;18.65;10.18;;;;;;;13.58;60.66;102357.63;5070084;28;20028;-72
2022/05/01 08:11:19;;;;;;;23.40;11.48;;;;;;;13.69;60.86;102366.25;5070053;28;20047;-73
2022/05/01 08:13:44;;;;;;;22.00;10.75;;;;;;;13.86;60.63;102361.56;5068783;28;20439;-72
2022/05/01 08:16:10;;;;;;;19.60;11.02;;;;;;;13.96;59.84;102359.47;5069374;28;20391;-72
2022/05/01 08:21:21;;;;;;;15.05;8.93;;;;;;;13.95;57.99;102360.50;5089210;28;20482;-73
2022/05/01 08:23:47;;;;;;;17.67;9.35;;;;;;;13.63;59.34;102349.03;5089296;28;20102;-68
2022/05/01 08:26:13;;;;;;;18.00;9.63;;;;;;;13.34;59.31;102353.28;5081800;28;20020;-71
2022/05/01 08:28:41;;;;;;;19.80;11.07;;;;;;;13.06;60.01;102352.09;5078862;28;20017;-74
2022/05/01 08:31:07;;;;;;;16.35;9.10;;;;;;;12.79;61.20;102340.00;5074782;28;20047;-74
2022/05/01 08:33:34;;;;;;;16.05;9.27;;;;;;;12.76;61.09;102337.66;5071040;28;20130;-72
2022/05/01 08:36:02;;;;;;;18.17;9.88;;;;;;;12.60;61.40;102354.63;5088396;28;20023;-72
2022/05/01 08:38:27;;;;;;;19.90;10.77;;;;;;;12.56;62.32;102340.75;5088576;28;20114;-71
2022/05/01 08:40:53;;;;;;;17.42;9.27;;;;;;;12.69;61.99;102350.94;5074817;28;20457;-72
2022/05/01 08:43:20;;;;;;;15.90;8.68;;;;;;;12.80;61.13;102349.69;5069207;28;20036;-73
2022/05/01 08:46:06;;;;;;;15.23;9.02;;;;;;;13.18;60.35;102352.50;5069384;28;20025;-73
2022/05/01 08:48:41;;;;;;;16.33;7.70;;;;;;;13.86;56.89;102348.16;5088573;28;20028;-73
2022/05/01 08:51:08;;;;;;;18.92;8.60;;;;;;;13.80;57.41;102353.25;5078692;28;20085;-73
2022/05/01 08:53:36;;;;;;;19.30;9.95;;;;;;;14.00;57.12;102342.00;5069420;28;20565;-73
2022/05/01 08:56:01;;;;;;;17.65;9.15;;;;;;;14.08;56.38;102341.09;5088572;28;20455;-73
2022/05/01 08:58:30;;;;;;;18.23;8.57;;;;;;;14.09;56.70;102351.63;5088795;28;20513;-73
2022/05/01 09:00:58;;;;;;;15.50;8.32;;;;;;;14.11;56.01;102336.19;5089724;28;20484;-72
2022/05/01 09:03:24;;;;;;;25.10;8.80;;;;;;;14.25;56.84;102353.31;5093371;28;20028;-73
2022/05/01 09:05:50;;;;;;;13.10;7.60;;;;;;;14.37;55.59;102351.03;5093894;28;20035;-73
2022/05/01 09:08:16;;;;;;;14.93;7.70;;;;;;;14.29;52.11;102343.06;5092843;28;20036;-74
2022/05/01 09:10:43;;;;;;;13.98;7.32;;;;;;;14.03;53.72;102344.31;5083484;28;20032;-72
2022/05/01 09:13:09;;;;;;;16.00;7.03;;;;;;;13.87;54.08;102350.69;5075132;28;20120;-73
2022/05/01 09:15:40;;;;;;;15.40;6.57;;;;;;;13.94;54.44;102351.63;5092742;28;20874;-73
2022/05/01 09:18:11;;;;;;;14.00;7.30;;;;;;;14.06;51.91;102346.63;5092644;28;20016;-72
2022/05/01 09:20:57;;;;;;;11.23;5.83;;;;;;;13.97;52.51;102345.91;5081818;28;20052;-72
2022/05/01 09:23:46;;;;;;;13.57;7.93;;;;;;;13.99;53.89;102349.22;5087918;28;20343;-69
2022/05/01 09:26:14;;;;;;;10.02;4.97;;;;;;;13.79;50.64;102348.91;5084626;28;20035;-73
2022/05/01 09:28:53;;;;;;;11.30;5.55;;;;;;;13.66;50.27;102342.50;5092069;28;20056;-73
2022/05/01 09:31:50;;;;;;;12.82;5.03;;;;;;;13.72;51.85;102347.94;5082118;28;20193;-74
2022/05/01 09:34:23;;;;;;;10.98;5.22;;;;;;;13.95;51.95;102350.59;5092145;28;20028;-73
2022/05/01 09:36:50;;;;;;;9.23;5.25;;;;;;;14.11;49.63;102346.09;5080444;28;20028;-74
2022/05/01 09:39:19;;;;;;;10.38;5.72;;;;;;;14.10;51.08;102347.94;5092114;28;20480;-74
2022/05/01 09:41:47;;;;;;;10.63;5.93;;;;;;;13.84;49.70;102342.19;5085152;28;20483;-73
2022/05/01 09:44:15;;;;;;;10.13;5.50;;;;;;;13.88;50.60;102346.97;5072480;28;20566;-74
2022/05/01 09:46:44;;;;;;;13.23;6.53;;;;;;;13.82;50.27;102335.13;5091718;28;20028;-73
2022/05/01 09:49:13;;;;;;;14.27;6.70;;;;;;;13.84;51.39;102340.31;5090540;28;20433;-74
2022/05/01 09:51:46;;;;;;;9.60;5.05;;;;;;;13.95;50.65;102349.78;5092010;28;20032;-74
2022/05/01 09:54:18;;;;;;;10.98;6.57;;;;;;;13.85;48.89;102349.19;5080671;28;20074;-74
2022/05/01 09:56:58;;;;;;;11.88;6.00;;;;;;;13.57;48.89;102339.88;5090632;28;20028;-73
2022/05/01 09:59:26;;;;;;;10.93;5.35;;;;;;;13.50;48.44;102338.91;5091758;28;20036;-73
2022/05/01 10:02:04;;;;;;;10.95;5.82;;;;;;;13.43;49.31;102346.00;5091563;28;20028;-74
2022/05/01 10:04:31;;;;;;;12.05;5.60;;;;;;;13.35;48.42;102346.91;5091925;28;20386;-73
2022/05/01 10:06:57;;;;;;;11.50;6.38;;;;;;;13.42;49.36;102346.19;5091858;28;20161;-74
2022/05/01 10:09:36;;;;;;;12.82;6.20;;;;;;;13.60;50.11;102346.72;5091756;28;20032;-73
2022/05/01 10:12:06;;;;;;;13.70;5.57;;;;;;;13.71;50.59;102343.63;5091707;28;20036;-72
2022/05/01 10:14:32;;;;;;;11.25;6.32;;;;;;;13.80;50.84;102331.78;5091406;28;20028;-73
2022/05/01 10:16:58;;;;;;;13.30;6.47;;;;;;;14.01;49.61;102333.75;5091754;28;20023;-73
2022/05/01 10:19:24;;;;;;;10.52;6.30;;;;;;;14.07;48.95;102339.41;5084209;28;20037;-73
2022/05/01 10:22:00;;;;;;;10.98;6.30;;;;;;;14.07;49.01;102342.97;5071978;28;20064;-73
2022/05/01 10:24:26;;;;;;;9.65;6.00;;;;;;;14.09;49.95;102330.16;5084488;28;20035;-73
2022/05/01 10:26:56;;;;;;;10.52;6.18;;;;;;;14.25;48.90;102339.91;5072464;28;20028;-73
2022/05/01 10:29:37;;;;;;;10.15;5.55;;;;;;;14.25;49.35;102331.84;5091474;28;20401;-73
2022/05/01 10:32:22;;;;;;;12.55;6.97;;;;;;;14.38;49.44;102329.38;5077810;28;20024;-72
2022/05/01 10:35:30;;;;;;;13.73;7.05;;;;;;;14.51;50.26;102322.50;5091128;28;20050;-72
2022/05/01 10:37:59;;;;;;;12.52;6.80;;;;;;;14.65;49.27;102325.22;5091250;28;20028;-72
2022/05/01 10:40:24;;;;;;;11.98;5.63;;;;;;;14.61;48.46;102315.84;5072479;28;20035;-73
2022/05/01 10:42:50;;;;;;;11.27;6.47;;;;;;;14.66;48.40;102323.34;5071666;28;20029;-73
2022/05/01 10:45:21;;;;;;;11.48;5.82;;;;;;;14.86;47.52;102319.06;5072134;28;20468;-73
2022/05/01 10:47:55;;;;;;;10.20;5.70;;;;;;;15.10;47.55;102317.03;5088801;28;20050;-74
2022/05/01 10:50:26;;;;;;;11.57;5.85;;;;;;;15.36;47.18;102302.22;5089505;28;20286;-74
2022/05/01 10:53:00;;;;;;;14.88;6.57;;;;;;;15.66;46.74;102310.94;5081593;28;20095;-74
2022/05/01 10:55:26;;;;;;;11.05;5.07;;;;;;;15.54;44.28;102311.47;5071276;28;20133;-73
2022/05/01 10:58:19;;;;;;;12.23;6.18;;;;;;;15.24;45.75;102305.38;5085956;28;20142;-72
2022/05/01 11:00:46;;;;;;;17.60;8.32;;;;;;;15.25;50.55;102300.88;5084245;28;20444;-74
2022/05/01 11:03:22;;;;;;;11.35;6.47;;;;;;;15.30;46.09;102291.19;5090711;28;20119;-73
2022/05/01 11:05:50;;;;;;;11.50;6.35;;;;;;;15.33;47.84;102292.69;5089930;28;20032;-74
2022/05/01 11:08:18;;;;;;;9.20;5.85;;;;;;;15.40;47.26;102303.47;5074812;28;20598;-73
2022/05/01 11:10:44;;;;;;;9.55;5.78;;;;;;;15.34;44.79;102289.78;5080520;28;20103;-73
2022/05/01 11:13:14;;;;;;;14.18;6.97;;;;;;;15.27;45.95;102293.41;5071184;28;20046;-74
2022/05/01 11:15:47;;;;;;;10.93;6.03;;;;;;;15.29;48.89;102292.22;5090127;28;20032;-73
2022/05/01 11:18:13;;;;;;;11.63;6.18;;;;;;;15.39;48.90;102280.31;5085208;28;20036;-74
2022/05/01 11:20:38;;;;;;;15.07;6.75;;;;;;;15.48;47.86;102287.19;5076307;28;20028;-74
2022/05/01 11:23:26;;;;;;;12.27;6.47;;;;;;;15.47;47.42;102286.38;5078416;28;20051;-73
2022/05/01 11:26:05;;;;;;;12.23;6.35;;;;;;;15.40;46.74;102276.59;5089118;28;20042;-74
2022/05/01 11:28:52;;;;;;;12.77;6.68;;;;;;;15.40;49.65;102276.59;5089699;28;20961;-73
2022/05/01 11:31:36;;;;;;;12.57;6.72;;;;;;;15.70;48.45;102271.91;5089924;28;20031;-73
2022/05/01 11:34:17;;;;;;;15.68;6.80;;;;;;;15.91;47.53;102273.72;5088259;28;20107;-73
2022/05/01 11:36:53;;;;;;;11.25;6.53;;;;;;;16.08;48.72;102256.19;5090075;28;20024;-73
2022/05/01 11:39:19;;;;;;;10.15;6.10;;;;;;;16.20;43.35;102262.69;5089943;28;20120;-72
2022/05/01 11:41:46;;;;;;;11.55;6.53;;;;;;;16.10;43.33;102262.22;5088664;28;20040;-70
2022/05/01 11:44:24;;;;;;;12.00;6.80;;;;;;;16.09;43.04;102259.75;5070558;28;20395;-71
2022/05/01 11:46:54;;;;;;;12.63;6.25;;;;;;;15.84;42.01;102254.00;5070527;28;20120;-70